My Meet Scores
Gabby Chavez, Phenom Gymnastics - MyMeetScores.com
Top100 | Top Teams | Upcoming Meets | Completed Meets | Latest | Add Scores | Help| Support | Bookmark and Share

Gabby Chavez, Phenom Gymnastics
Personal Bests
LevelVault BarsBeamFloorAA
48.9259.550 8.9759.20036.650
69.4759.675 9.6509.60038.300
79.5009.725 9.7009.80038.550
89.3509.700 9.6509.37537.950
Meet Scores
Date Meet Team Session Level Division Vault Bars Beam Floor AA
2019-03-29 Illinois Level 7 & 8 State Meet Phenom Gymnastics 2 8 Jr B 9.350 4T 9.700 7T 9.650 3 9.250 22 37.950 7
2019-03-01 NGCD Academy's 2019 Flip'r Invitational Phenom Gymnastics 4 8 Jr A 0.000 10T 9.250 6 9.375 2 9.275 1 27.900 10
2019-02-23 Kinetic Classic 2019 Phenom Gymnastics 1 8 Younger 0.000 13T 8.450 12 9.375 1T 9.250 6T 27.075 14
2018-12-14 2018 Aspire Classic Phenom Gymnastics 4 8 Younger 0.000 18 9.125 11T 0.000 18 0.000 17T 9.125 18
2018-12-07 2018 MEGA Magic Classic Phenom Gymnastics A4 8 Jr A 8.975 4 9.475 1 8.875 5T 9.375 4 36.700 1
2018-04-20 2018 Region 5 Levels 7/8 Championships Premier Gymnastics Academy West 09A 7 Jr B1 9.475 5T 9.475 5T 9.700 2T 9.700 3T 38.350 5
2018-03-23 Illinois Level 7 & 8 State Competition Premier Gymnastics Academy West 10 7 Ch B 9.475 6T 9.725 2T 9.650 6T 9.700 5T 38.550 3
2018-03-09 Lucky Invitational Premier Gymnastics Academy West A07 7 Jr A 9.500 5 9.525 3T 9.450 2 9.800 1 38.275 1T
2018-02-16 Big Classic Premier Gymnastics Academy West 2A 7 Junior A 9.025 10 9.425 3 9.650 1 9.550 1 37.650 1
2018-01-26 2018 UGA Classic Premier Gymnastics Academy West A3 7 Jr A 9.400 2T 9.400 6 9.525 2 9.700 1 38.025 1
2018-01-18 2018 Kim Zmeskal's Texas Prime Meet Premier Gymnastics Academy West 8A 7 Jr B 9.425 4 9.375 6 9.250 4 9.575 5 37.625 2T
2017-12-15 2017 Aspire Classic Premier Gymnastics Academy West 2 7 Jr A 9.475 11T 9.575 5 9.500 3 9.425 3T 37.975 2
2017-11-16 Paul Hamm Thanksgiving Classic - Women Premier Gymnastics Academy West 3 7 Younger 9.425 25T 9.000 25T 9.275 17T 9.400 16T 37.100 18
2017-03-23 2017 Illinois Level 6, 7 State Championship Premier Gymnastics Academy West 6 6 Ch B 9.400 6 8.950 16 9.625 3T 9.525 2 37.500 6
2017-03-10 Lucky Invitational Premier Gymnastics Academy West A10 6 Jr A 9.150 5T 9.675 1 9.500 1 9.450 3T 37.775 1
2017-02-24 Queen City Winter Classic Premier Gymnastics Academy West 2 6 Junior A 9.125 5 9.350 3 9.325 7 9.225 3 37.025 4
2017-02-18 2017 Great Western Invitational Women's Premier Gymnastics Academy West 8 6 L6 (8-10) 8.250 18 9.200 5 9.350 5 9.525 3 36.325 9
2017-01-27 2017 UGA Invitational Premier Gymnastics Academy West A9 6 Child 9.475 6 9.575 2 9.650 1 9.600 1T 38.300 1
2016-12-16 2016 Aspire Classic Premier Gymnastics Academy West 3 6 Younger 9.250 4T 8.900 9T 9.325 4 9.500 2 36.975 6
2016-11-19 Paul Hamm Thanksgiving Classic - 2016 Girls Premier Gymnastics Academy West 2 6 7-11 yrs 9.075 5T 8.950 8 9.250 7T 9.100 4T 36.375 3
2016-03-10 2016 Illinois Level 4 State Meet Premier Gymnastics Academy West All 4 Child-E 8.925 4 9.550 1 8.975 14 9.200 4 36.650 2
2016-01-22 King Arthur Invitational Premier Gymnastics Academy West S16 4 Jr.A 8.575 10 9.525 1 8.700 18 8.700 15 35.500 9
Get your scores on
a t-shirt, pin, or hoodie

Order by December 13

www.lazysuits.com